createdAt,value
2018-05-23T00:01:54.380Z,14.20
2018-05-23T00:04:22.692Z,14.20
2018-05-23T00:06:50.245Z,14.20
2018-05-23T00:09:17.784Z,14.20
2018-05-23T00:11:45.340Z,14.20
2018-05-23T00:14:12.882Z,14.20
2018-05-23T00:16:41.216Z,14.20
2018-05-23T00:19:08.744Z,14.10
2018-05-23T00:21:36.310Z,14.10
2018-05-23T00:24:03.852Z,14.10
2018-05-23T00:26:31.416Z,14.10
2018-05-23T00:28:58.953Z,14.10
2018-05-23T00:31:27.961Z,14.10
2018-05-23T00:33:56.258Z,14.10
2018-05-23T00:36:23.823Z,14.10
2018-05-23T00:38:51.355Z,14.10
2018-05-23T00:41:18.903Z,14.10
2018-05-23T00:43:47.198Z,14.10
2018-05-23T00:46:14.752Z,14.00
2018-05-23T00:48:42.284Z,14.00
2018-05-23T00:51:10.605Z,14.10
2018-05-23T00:53:38.134Z,14.00
2018-05-23T00:56:05.684Z,14.10
2018-05-23T00:58:33.990Z,14.10
2018-05-23T01:01:01.545Z,14.10
2018-05-23T01:03:29.076Z,14.10
2018-05-23T01:05:57.398Z,14.10
2018-05-23T01:08:24.924Z,14.10
2018-05-23T01:10:53.236Z,14.10
2018-05-23T01:13:20.778Z,14.10
2018-05-23T01:15:48.336Z,14.10
2018-05-23T01:18:15.871Z,14.10
2018-05-23T01:20:43.423Z,14.10
2018-05-23T01:23:11.711Z,14.10
2018-05-23T01:25:39.245Z,14.10
2018-05-23T01:28:06.797Z,14.10
2018-05-23T01:30:34.350Z,14.10
2018-05-23T01:33:01.901Z,14.20
2018-05-23T01:35:29.431Z,14.10
2018-05-23T01:37:56.968Z,14.10
2018-05-23T01:40:24.496Z,14.10
2018-05-23T01:42:57.828Z,14.00
2018-05-23T01:45:25.368Z,14.00
2018-05-23T01:47:53.690Z,14.00
2018-05-23T01:50:21.228Z,14.00
2018-05-23T01:52:48.766Z,14.00
2018-05-23T01:55:16.290Z,13.90
2018-05-23T01:57:43.838Z,13.90
2018-05-23T02:00:11.365Z,13.90
2018-05-23T02:02:38.916Z,13.90
2018-05-23T02:05:06.445Z,13.90
2018-05-23T02:07:34.755Z,13.90
2018-05-23T02:10:02.292Z,13.80
2018-05-23T02:12:29.837Z,13.80
2018-05-23T02:14:58.129Z,13.80
2018-05-23T02:17:25.692Z,13.80
2018-05-23T02:19:53.252Z,13.80
2018-05-23T02:22:20.825Z,13.80
2018-05-23T02:24:48.360Z,13.80
2018-05-23T02:27:15.914Z,13.80
2018-05-23T02:29:44.217Z,13.80
2018-05-23T02:32:11.792Z,13.80
2018-05-23T02:34:39.320Z,13.80
2018-05-23T02:37:06.871Z,13.80
2018-05-23T02:39:34.402Z,13.80
2018-05-23T02:42:01.953Z,13.80
2018-05-23T02:44:29.506Z,13.80
2018-05-23T02:46:57.053Z,13.80
2018-05-23T02:49:24.593Z,13.80
2018-05-23T02:51:52.152Z,13.80
2018-05-23T02:54:19.754Z,13.80
2018-05-23T02:56:47.328Z,13.80
2018-05-23T02:59:16.184Z,13.80
2018-05-23T03:01:43.748Z,13.80
2018-05-23T03:04:11.284Z,13.80
2018-05-23T03:06:38.831Z,13.80
2018-05-23T03:09:06.372Z,13.70
2018-05-23T03:11:33.927Z,13.70
2018-05-23T03:14:01.472Z,13.70
2018-05-23T03:16:29.789Z,13.70
2018-05-23T03:18:58.281Z,13.70
2018-05-23T03:21:25.841Z,13.70
2018-05-23T03:23:53.414Z,13.70
2018-05-23T03:26:20.957Z,13.70
2018-05-23T03:28:48.525Z,13.70
2018-05-23T03:31:16.076Z,13.80
2018-05-23T03:33:43.621Z,13.80
2018-05-23T03:36:11.152Z,13.80
2018-05-23T03:38:38.717Z,13.80
2018-05-23T03:41:06.253Z,13.80
2018-05-23T03:43:34.564Z,13.80
2018-05-23T03:46:02.098Z,13.80
2018-05-23T03:48:29.691Z,13.80
2018-05-23T03:50:57.225Z,13.80
2018-05-23T03:53:24.777Z,13.80
2018-05-23T03:55:52.308Z,13.80
2018-05-23T03:58:19.872Z,13.80
2018-05-23T04:01:00.045Z,13.90
2018-05-23T04:03:39.322Z,13.90
2018-05-23T04:06:18.492Z,13.90
2018-05-23T04:08:46.813Z,13.90
2018-05-23T04:11:15.950Z,13.90
2018-05-23T04:13:43.520Z,13.90
2018-05-23T04:16:11.061Z,14.00
2018-05-23T04:18:38.609Z,14.00
2018-05-23T04:21:06.160Z,14.00
2018-05-23T04:23:33.711Z,14.10
2018-05-23T04:26:02.004Z,14.10
2018-05-23T04:28:29.573Z,14.10
2018-05-23T04:30:57.173Z,14.20
2018-05-23T04:33:25.464Z,14.20
2018-05-23T04:35:53.010Z,14.20
2018-05-23T04:38:20.561Z,14.30
2018-05-23T04:40:48.096Z,14.30
2018-05-23T04:43:15.724Z,14.40
2018-05-23T04:45:43.971Z,14.50
2018-05-23T04:48:12.037Z,14.40
2018-05-23T04:50:39.572Z,14.50
2018-05-23T04:53:07.885Z,14.50
2018-05-23T04:55:35.416Z,14.50
2018-05-23T04:58:03.746Z,14.60
2018-05-23T05:00:31.289Z,14.50
2018-05-23T05:02:58.827Z,14.60
2018-05-23T05:05:26.591Z,14.60
2018-05-23T05:07:54.124Z,14.70
2018-05-23T05:10:22.443Z,14.80
2018-05-23T05:12:49.989Z,14.70
2018-05-23T05:15:17.546Z,14.80
2018-05-23T05:17:45.085Z,14.80
2018-05-23T05:20:12.638Z,14.90
2018-05-23T05:22:40.947Z,15.00
2018-05-23T05:25:08.526Z,14.90
2018-05-23T05:27:36.052Z,15.00
2018-05-23T05:30:03.642Z,15.00
2018-05-23T05:32:31.190Z,15.10
2018-05-23T05:34:58.748Z,15.10
2018-05-23T05:37:26.308Z,15.20
2018-05-23T05:39:53.917Z,15.20
2018-05-23T05:42:22.215Z,15.20
2018-05-23T05:44:49.764Z,15.20
2018-05-23T05:47:18.149Z,15.20
2018-05-23T05:49:45.729Z,15.20
2018-05-23T05:52:13.269Z,15.20
2018-05-23T05:54:40.861Z,15.20
2018-05-23T05:57:08.404Z,15.20
2018-05-23T05:59:36.013Z,15.20
2018-05-23T06:02:03.568Z,15.20
2018-05-23T06:04:31.156Z,15.30
2018-05-23T06:06:58.695Z,15.40
2018-05-23T06:09:27.072Z,15.50
2018-05-23T06:11:55.586Z,15.50
2018-05-23T06:14:23.179Z,15.50
2018-05-23T06:16:51.276Z,15.60
2018-05-23T06:19:18.890Z,15.60
2018-05-23T06:21:46.424Z,15.60
2018-05-23T06:24:13.980Z,15.70
2018-05-23T06:26:42.274Z,15.70
2018-05-23T06:29:09.829Z,15.70
2018-05-23T06:31:37.372Z,15.70
2018-05-23T06:34:04.932Z,15.60
2018-05-23T06:36:33.208Z,15.60
2018-05-23T06:39:00.778Z,15.60
2018-05-23T06:41:28.327Z,15.60
2018-05-23T06:43:55.900Z,15.60
2018-05-23T06:46:23.444Z,15.60
2018-05-23T06:48:50.999Z,15.60
2018-05-23T06:51:19.307Z,15.80
2018-05-23T06:53:46.864Z,15.80
2018-05-23T06:56:14.481Z,15.80
2018-05-23T06:58:42.808Z,15.90
2018-05-23T07:01:10.928Z,15.90
2018-05-23T07:03:39.226Z,16.00
2018-05-23T07:06:07.332Z,15.90
2018-05-23T07:08:34.876Z,15.90
2018-05-23T07:11:02.523Z,16.00
2018-05-23T07:13:29.988Z,16.10
2018-05-23T07:15:57.546Z,16.20
2018-05-23T07:18:25.080Z,16.40
2018-05-23T07:20:53.399Z,16.70
2018-05-23T07:23:20.929Z,16.70
2018-05-23T07:25:48.525Z,16.90
2018-05-23T07:28:16.023Z,17.10
2018-05-23T07:30:43.597Z,17.30
2018-05-23T07:33:11.183Z,17.50
2018-05-23T07:35:38.728Z,17.70
2018-05-23T07:38:06.256Z,17.80
2018-05-23T07:40:34.581Z,18.00
2018-05-23T07:43:02.116Z,18.00
2018-05-23T07:45:30.308Z,18.00
2018-05-23T07:47:57.840Z,18.10
2018-05-23T07:50:25.422Z,18.10
2018-05-23T07:52:52.989Z,18.00
2018-05-23T07:55:20.558Z,18.00
2018-05-23T07:57:48.241Z,18.10
2018-05-23T08:00:15.796Z,18.10
2018-05-23T08:02:43.344Z,18.30
2018-05-23T08:05:10.904Z,18.10
2018-05-23T08:07:38.449Z,18.20
2018-05-23T08:10:06.009Z,18.30
2018-05-23T08:12:35.704Z,18.40
2018-05-23T08:15:03.274Z,18.50
2018-05-23T08:17:30.808Z,18.60
2018-05-23T08:20:00.559Z,18.70
2018-05-23T08:22:28.208Z,18.80
2018-05-23T08:24:56.132Z,18.70
2018-05-23T08:27:23.676Z,18.90
2018-05-23T08:29:52.369Z,18.70
2018-05-23T08:32:20.678Z,19.10
2018-05-23T08:34:48.232Z,19.00
2018-05-23T08:37:15.770Z,19.30
2018-05-23T08:39:43.316Z,19.70
2018-05-23T08:42:11.603Z,20.40
2018-05-23T08:44:39.704Z,20.40
2018-05-23T08:47:07.887Z,20.00
2018-05-23T08:49:35.430Z,20.10
2018-05-23T08:52:02.981Z,20.60
2018-05-23T08:54:30.531Z,21.20
2018-05-23T08:56:58.110Z,21.60
2018-05-23T08:59:25.669Z,22.00
2018-05-23T09:01:54.230Z,22.60
2018-05-23T09:04:21.799Z,22.90
2018-05-23T09:06:49.348Z,21.90
2018-05-23T09:09:16.889Z,22.20
2018-05-23T09:11:44.451Z,22.10
2018-05-23T09:14:11.988Z,22.40
2018-05-23T09:16:39.571Z,22.20
2018-05-23T09:19:07.103Z,22.70
2018-05-23T09:21:34.668Z,22.90
2018-05-23T09:24:02.917Z,23.00
2018-05-23T09:26:30.464Z,23.10
2018-05-23T09:28:57.992Z,23.20
2018-05-23T09:31:25.548Z,23.20
2018-05-23T09:33:53.079Z,23.60
2018-05-23T09:36:21.388Z,23.80
2018-05-23T09:38:48.911Z,23.70
2018-05-23T09:41:17.228Z,23.70
2018-05-23T09:43:44.757Z,23.70
2018-05-23T09:46:13.077Z,24.90
2018-05-23T09:48:40.602Z,24.90
2018-05-23T09:51:08.152Z,25.80
2018-05-23T09:53:36.452Z,26.80
2018-05-23T09:56:04.010Z,26.80
2018-05-23T09:58:31.543Z,28.00
2018-05-23T10:00:59.864Z,28.30
2018-05-23T10:03:27.400Z,28.30
2018-05-23T10:05:54.951Z,28.20
2018-05-23T10:08:22.488Z,27.60
2018-05-23T10:10:50.809Z,30.40
2018-05-23T10:13:18.331Z,30.30
2018-05-23T10:15:46.648Z,30.70
2018-05-23T10:18:14.572Z,30.60
2018-05-23T10:20:42.887Z,29.60
2018-05-23T10:23:10.453Z,29.60
2018-05-23T10:25:37.996Z,29.40
2018-05-23T10:28:05.528Z,28.30
2018-05-23T10:30:33.082Z,28.70
2018-05-23T10:33:01.381Z,30.30
2018-05-23T10:35:28.932Z,30.30
2018-05-23T10:37:56.463Z,31.30
2018-05-23T10:40:24.788Z,31.00
2018-05-23T10:42:52.325Z,31.00
2018-05-23T10:45:19.872Z,31.00
2018-05-23T10:47:48.169Z,32.00
2018-05-23T10:50:15.724Z,32.00
2018-05-23T10:52:43.256Z,32.10
2018-05-23T10:55:11.569Z,31.10
2018-05-23T10:57:39.864Z,30.50
2018-05-23T11:00:07.449Z,30.50
2018-05-23T11:02:34.963Z,30.40
2018-05-23T11:05:02.517Z,29.90
2018-05-23T11:07:30.051Z,30.30
2018-05-23T11:09:58.353Z,29.60
2018-05-23T11:12:26.574Z,29.60
2018-05-23T11:14:54.204Z,30.00
2018-05-23T11:17:22.476Z,30.20
2018-05-23T11:19:50.024Z,30.20
2018-05-23T11:22:17.563Z,30.20
2018-05-23T11:24:45.094Z,30.20
2018-05-23T11:27:12.657Z,30.30
2018-05-23T11:29:41.044Z,30.20
2018-05-23T11:32:08.529Z,30.20
2018-05-23T11:34:36.047Z,31.00
2018-05-23T11:37:03.596Z,31.00
2018-05-23T11:39:31.132Z,31.20
2018-05-23T11:41:58.680Z,31.30
2018-05-23T11:44:26.207Z,31.50
2018-05-23T11:46:53.752Z,31.20
2018-05-23T11:49:21.274Z,31.20
2018-05-23T11:51:48.815Z,31.90
2018-05-23T11:54:16.381Z,31.90
2018-05-23T11:56:43.922Z,31.80
2018-05-23T11:59:12.220Z,31.50
2018-05-23T12:01:39.770Z,31.50
2018-05-23T12:04:07.297Z,31.90
2018-05-23T12:06:34.880Z,31.60
2018-05-23T12:09:02.400Z,32.20
2018-05-23T12:11:30.703Z,32.50
2018-05-23T12:13:58.236Z,32.40
2018-05-23T12:16:26.549Z,32.20
2018-05-23T12:18:54.089Z,32.10
2018-05-23T12:21:21.634Z,31.00
2018-05-23T12:23:49.170Z,31.60
2018-05-23T12:26:17.532Z,32.40
2018-05-23T12:28:45.065Z,32.40
2018-05-23T12:31:12.606Z,32.60
2018-05-23T12:33:40.134Z,32.40
2018-05-23T12:36:08.441Z,32.90
2018-05-23T12:38:35.976Z,32.80
2018-05-23T12:41:03.585Z,31.50
2018-05-23T12:43:31.065Z,31.70
2018-05-23T12:45:58.609Z,32.30
2018-05-23T12:48:26.135Z,32.70
2018-05-23T12:50:53.681Z,31.80
2018-05-23T12:53:21.213Z,31.80
2018-05-23T12:55:50.631Z,29.20
2018-05-23T12:58:18.170Z,29.20
2018-05-23T13:00:46.490Z,28.60
2018-05-23T13:03:14.016Z,28.50
2018-05-23T13:05:41.572Z,27.90
2018-05-23T13:08:09.095Z,27.80
2018-05-23T13:10:36.616Z,27.80
2018-05-23T13:13:04.160Z,28.80
2018-05-23T13:15:31.688Z,29.00
2018-05-23T13:18:00.090Z,29.30
2018-05-23T13:20:27.543Z,29.40
2018-05-23T13:22:55.861Z,28.50
2018-05-23T13:25:23.419Z,28.50
2018-05-23T13:27:50.968Z,28.60
2018-05-23T13:30:18.497Z,28.70
2018-05-23T13:32:46.047Z,29.10
2018-05-23T13:35:15.226Z,29.00
2018-05-23T13:37:42.772Z,29.00
2018-05-23T13:40:10.341Z,28.50
2018-05-23T13:43:01.767Z,28.00
2018-05-23T13:45:29.340Z,27.90
2018-05-23T13:47:59.148Z,27.70
2018-05-23T13:50:27.444Z,28.00
2018-05-23T13:52:54.987Z,28.00
2018-05-23T13:55:23.279Z,28.00
2018-05-23T13:57:50.890Z,28.00
2018-05-23T14:00:18.434Z,28.40
2018-05-23T14:02:45.992Z,29.00
2018-05-23T14:05:13.531Z,28.50
2018-05-23T14:07:41.855Z,28.70
2018-05-23T14:10:09.397Z,28.70
2018-05-23T14:12:36.952Z,29.00
2018-05-23T14:15:04.504Z,28.90
2018-05-23T14:17:32.079Z,28.60
2018-05-23T14:19:59.668Z,28.60
2018-05-23T14:22:36.791Z,29.40
2018-05-23T14:25:04.347Z,29.40
2018-05-23T14:27:31.922Z,29.80
2018-05-23T14:30:00.739Z,30.30
2018-05-23T14:32:28.309Z,30.00
2018-05-23T14:34:56.638Z,30.20
2018-05-23T14:37:24.213Z,30.20
2018-05-23T14:39:51.766Z,30.10
2018-05-23T14:42:19.306Z,29.90
2018-05-23T14:44:47.015Z,29.80
2018-05-23T14:47:14.561Z,29.70
2018-05-23T14:49:42.088Z,29.80
2018-05-23T14:52:09.632Z,30.10
2018-05-23T14:54:37.160Z,30.10
2018-05-23T14:57:05.476Z,30.20
2018-05-23T14:59:33.004Z,30.20
2018-05-23T15:02:00.551Z,30.30
2018-05-23T15:04:29.037Z,30.00
2018-05-23T15:06:57.340Z,29.40
2018-05-23T15:09:24.877Z,29.40
2018-05-23T15:11:52.419Z,28.60
2018-05-23T15:14:20.807Z,28.00
2018-05-23T15:16:48.281Z,28.00
2018-05-23T15:19:15.807Z,28.30
2018-05-23T15:21:43.352Z,28.50
2018-05-23T15:24:10.881Z,28.60
2018-05-23T15:26:38.437Z,28.40
2018-05-23T15:29:05.967Z,28.20
2018-05-23T15:31:33.527Z,28.00
2018-05-23T15:34:01.047Z,28.00
2018-05-23T15:36:28.599Z,28.00
2018-05-23T15:38:56.121Z,28.10
2018-05-23T15:41:23.657Z,28.10
2018-05-23T15:43:51.211Z,28.20
2018-05-23T15:46:18.734Z,28.10
2018-05-23T15:48:46.268Z,27.80
2018-05-23T15:51:13.888Z,27.60
2018-05-23T15:53:41.369Z,27.70
2018-05-23T15:56:08.923Z,27.70
2018-05-23T15:58:36.489Z,27.30
2018-05-23T16:01:04.024Z,27.20
2018-05-23T16:03:31.579Z,27.00
2018-05-23T16:05:59.399Z,26.90
2018-05-23T16:08:26.955Z,26.70
2018-05-23T16:10:54.484Z,26.80
2018-05-23T16:13:22.051Z,26.80
2018-05-23T16:15:49.580Z,26.70
2018-05-23T16:18:17.144Z,26.60
2018-05-23T16:20:44.685Z,26.60
2018-05-23T16:23:12.248Z,26.60
2018-05-23T16:25:39.783Z,26.30
2018-05-23T16:28:07.864Z,26.20
2018-05-23T16:30:36.156Z,26.00
2018-05-23T16:33:03.704Z,26.00
2018-05-23T16:35:32.885Z,26.10
2018-05-23T16:38:00.468Z,26.00
2018-05-23T16:40:28.024Z,26.00
2018-05-23T16:42:56.327Z,25.80
2018-05-23T16:45:23.852Z,25.80
2018-05-23T16:47:52.159Z,25.40
2018-05-23T16:50:19.693Z,25.40
2018-05-23T16:52:48.008Z,25.20
2018-05-23T16:55:15.527Z,25.20
2018-05-23T16:57:43.103Z,25.10
2018-05-23T17:00:10.633Z,25.00
2018-05-23T17:02:38.949Z,24.60
2018-05-23T17:05:06.537Z,24.60
2018-05-23T17:07:34.082Z,24.50
2018-05-23T17:10:01.612Z,24.40
2018-05-23T17:12:29.161Z,24.30
2018-05-23T17:14:56.725Z,24.20
2018-05-23T17:17:24.260Z,24.10
2018-05-23T17:19:52.557Z,23.90
2018-05-23T17:22:20.101Z,23.80
2018-05-23T17:24:48.391Z,23.70
2018-05-23T17:27:16.699Z,23.60
2018-05-23T17:29:44.227Z,23.60
2018-05-23T17:32:11.776Z,23.60
2018-05-23T17:34:40.076Z,23.50
2018-05-23T17:37:07.608Z,23.50
2018-05-23T17:39:36.005Z,23.20
2018-05-23T17:42:03.584Z,23.20
2018-05-23T17:44:31.136Z,23.10
2018-05-23T17:46:58.668Z,23.00
2018-05-23T17:49:26.220Z,23.00
2018-05-23T17:51:53.748Z,22.90
2018-05-23T17:54:21.297Z,22.80
2018-05-23T17:56:48.828Z,22.70
2018-05-23T17:59:17.140Z,22.60
2018-05-23T18:01:44.674Z,22.50
2018-05-23T18:04:12.261Z,22.50
2018-05-23T18:06:39.800Z,22.50
2018-05-23T18:09:07.354Z,22.40
2018-05-23T18:11:34.918Z,22.40
2018-05-23T18:14:02.493Z,22.30
2018-05-23T18:16:30.024Z,22.20
2018-05-23T18:18:57.570Z,22.10
2018-05-23T18:21:25.255Z,22.00
2018-05-23T18:23:52.809Z,21.80
2018-05-23T18:26:20.331Z,21.70
2018-05-23T18:28:47.876Z,21.50
2018-05-23T18:31:16.164Z,21.30
2018-05-23T18:33:43.704Z,21.20
2018-05-23T18:36:11.997Z,21.20
2018-05-23T18:38:39.551Z,21.10
2018-05-23T18:41:07.079Z,21.10
2018-05-23T18:43:34.788Z,21.10
2018-05-23T18:46:02.313Z,21.10
2018-05-23T18:48:30.726Z,21.00
2018-05-23T18:50:58.251Z,21.00
2018-05-23T18:53:26.635Z,21.00
2018-05-23T18:55:54.248Z,21.00
2018-05-23T18:58:21.804Z,21.00
2018-05-23T19:00:49.388Z,21.00
2018-05-23T19:03:16.935Z,20.90
2018-05-23T19:05:44.485Z,21.00
2018-05-23T19:08:12.180Z,21.00
2018-05-23T19:10:40.547Z,20.90
2018-05-23T19:13:08.095Z,20.90
2018-05-23T19:15:35.611Z,20.70
2018-05-23T19:18:03.158Z,20.10
2018-05-23T19:20:30.700Z,19.50
2018-05-23T19:23:00.043Z,18.70
2018-05-23T19:25:27.590Z,18.60
2018-05-23T19:27:55.659Z,18.30
2018-05-23T19:30:23.187Z,17.90
2018-05-23T19:32:51.510Z,16.90
2018-05-23T19:35:19.381Z,16.90
2018-05-23T19:37:46.902Z,16.60
2018-05-23T19:40:14.447Z,16.30
2018-05-23T19:42:42.839Z,16.10
2018-05-23T19:45:10.389Z,16.00
2018-05-23T19:47:38.699Z,16.00
2018-05-23T19:50:06.253Z,15.90
2018-05-23T19:52:34.840Z,16.00
2018-05-23T19:55:02.216Z,15.90
2018-05-23T19:57:29.748Z,15.80
2018-05-23T19:59:57.344Z,15.80
2018-05-23T20:02:24.920Z,15.80
2018-05-23T20:04:52.476Z,15.80
2018-05-23T20:07:20.004Z,15.60
2018-05-23T20:09:47.648Z,15.50
2018-05-23T20:12:15.175Z,15.60
2018-05-23T20:14:42.755Z,15.60
2018-05-23T20:17:10.299Z,15.70
2018-05-23T20:19:37.928Z,15.70
2018-05-23T20:22:05.456Z,15.70
2018-05-23T20:24:33.028Z,15.70
2018-05-23T20:27:00.557Z,15.60
2018-05-23T20:29:28.156Z,15.70
2018-05-23T20:31:55.691Z,15.70
2018-05-23T20:34:23.236Z,15.70
2018-05-23T20:36:50.765Z,15.70
2018-05-23T20:39:18.311Z,15.70
2018-05-23T20:41:46.617Z,15.60
2018-05-23T20:44:14.173Z,15.60
2018-05-23T20:46:41.712Z,15.50
2018-05-23T20:49:09.311Z,15.40
2018-05-23T20:51:36.843Z,15.40
2018-05-23T20:54:04.397Z,15.40
2018-05-23T20:56:31.944Z,15.40
2018-05-23T20:59:00.438Z,15.40
2018-05-23T21:01:27.871Z,15.40
2018-05-23T21:03:56.192Z,15.40
2018-05-23T21:06:23.737Z,15.40
2018-05-23T21:08:51.287Z,15.50
2018-05-23T21:11:18.815Z,15.50
2018-05-23T21:13:47.129Z,15.40
2018-05-23T21:16:14.657Z,15.40
2018-05-23T21:18:43.057Z,15.40
2018-05-23T21:21:10.596Z,15.40
2018-05-23T21:23:38.920Z,15.40
2018-05-23T21:26:06.450Z,15.40
2018-05-23T21:28:34.010Z,15.40
2018-05-23T21:31:01.532Z,15.40
2018-05-23T21:33:29.114Z,15.40
2018-05-23T21:35:57.409Z,15.40
2018-05-23T21:38:24.936Z,15.30
2018-05-23T21:40:53.259Z,15.30
2018-05-23T21:43:20.797Z,15.30
2018-05-23T21:45:48.365Z,15.30
2018-05-23T21:48:15.906Z,15.30
2018-05-23T21:50:43.465Z,15.30
2018-05-23T21:53:11.825Z,15.30
2018-05-23T21:55:40.143Z,15.30
2018-05-23T21:58:07.663Z,15.30
2018-05-23T22:00:35.972Z,15.30
2018-05-23T22:03:03.491Z,15.30
2018-05-23T22:05:31.812Z,15.30
2018-05-23T22:07:59.359Z,15.30
2018-05-23T22:10:26.932Z,15.30
2018-05-23T22:12:54.466Z,15.20
2018-05-23T22:15:22.020Z,15.20
2018-05-23T22:17:49.552Z,15.20
2018-05-23T22:20:18.462Z,15.20
2018-05-23T22:22:46.767Z,15.10
2018-05-23T22:25:14.339Z,15.10
2018-05-23T22:27:41.868Z,15.10
2018-05-23T22:30:09.427Z,15.10
2018-05-23T22:32:36.968Z,15.00
2018-05-23T22:35:05.289Z,15.00
2018-05-23T22:37:32.829Z,15.00
2018-05-23T22:40:00.391Z,15.00
2018-05-23T22:42:27.924Z,15.00
2018-05-23T22:44:56.244Z,15.00
2018-05-23T22:47:23.786Z,15.00
2018-05-23T22:49:51.324Z,15.00
2018-05-23T22:52:18.885Z,14.90
2018-05-23T22:54:46.437Z,14.90
2018-05-23T22:57:14.748Z,14.80
2018-05-23T22:59:42.302Z,14.80
2018-05-23T23:02:09.884Z,14.80
2018-05-23T23:04:37.430Z,14.80
2018-05-23T23:07:04.997Z,14.70
2018-05-23T23:09:32.537Z,14.70
2018-05-23T23:12:00.105Z,14.70
2018-05-23T23:14:27.643Z,14.60
2018-05-23T23:16:55.215Z,14.60
2018-05-23T23:19:22.756Z,14.50
2018-05-23T23:21:50.317Z,14.40
2018-05-23T23:24:17.857Z,14.40
2018-05-23T23:26:46.165Z,14.30
2018-05-23T23:29:13.700Z,14.30
2018-05-23T23:31:41.277Z,14.30
2018-05-23T23:34:08.812Z,14.30
2018-05-23T23:36:36.386Z,14.30
2018-05-23T23:39:03.925Z,14.20
2018-05-23T23:41:32.248Z,14.20
2018-05-23T23:43:59.799Z,14.20
2018-05-23T23:46:27.363Z,14.10
2018-05-23T23:48:54.904Z,14.10
2018-05-23T23:51:22.468Z,14.10
2018-05-23T23:53:49.999Z,14.00
2018-05-23T23:56:17.551Z,14.00
2018-05-23T23:58:45.108Z,14.00
